createdAt,value
2019-06-07T20:26:05.045Z,55.93
2019-06-07T20:28:38.336Z,56.47
2019-06-07T20:31:10.548Z,57.49
2019-06-07T20:33:42.976Z,57.81
2019-06-07T20:36:14.872Z,58.43
2019-06-07T20:38:47.111Z,58.90
2019-06-07T20:41:19.542Z,59.16
2019-06-07T20:43:51.806Z,59.36
2019-06-07T20:46:23.947Z,59.07
2019-06-07T20:48:56.191Z,59.34
2019-06-07T20:51:28.301Z,60.16
2019-06-07T20:54:00.530Z,59.32
2019-06-07T20:56:33.104Z,59.55
2019-06-07T20:59:06.747Z,59.72
2019-06-07T21:01:42.626Z,58.93
2019-06-07T21:04:13.082Z,59.98
2019-06-07T21:06:45.466Z,59.04
2019-06-07T21:09:17.741Z,58.80
2019-06-07T21:11:50.104Z,58.32
2019-06-07T21:14:23.431Z,58.21
2019-06-07T21:16:55.570Z,58.19
2019-06-07T21:19:27.840Z,58.13
2019-06-07T21:22:00.436Z,58.20
2019-06-07T21:24:32.790Z,58.41
2019-06-07T21:27:05.434Z,58.03
2019-06-07T21:29:37.654Z,57.62
2019-06-07T21:32:09.800Z,57.29
2019-06-07T21:34:42.201Z,57.53
2019-06-07T21:37:14.449Z,57.87
2019-06-07T21:39:49.842Z,56.94
2019-06-07T21:42:20.745Z,57.23
2019-06-07T21:44:53.150Z,57.13
2019-06-07T21:47:25.386Z,57.06
2019-06-07T21:49:57.464Z,57.36
2019-06-07T21:52:29.749Z,57.02
2019-06-07T21:55:02.889Z,57.04
2019-06-07T21:57:35.304Z,57.23
2019-06-07T22:00:14.828Z,56.76
2019-06-07T22:02:48.414Z,56.22
2019-06-07T22:05:20.696Z,55.73
2019-06-07T22:07:53.881Z,55.70
2019-06-07T22:10:26.115Z,55.76
2019-06-07T22:12:58.433Z,55.97
2019-06-07T22:15:37.516Z,55.92
2019-06-07T22:18:12.944Z,55.90
2019-06-07T22:20:48.621Z,56.03
2019-06-07T22:23:20.802Z,56.23
2019-06-07T22:25:52.877Z,56.50
2019-06-07T22:28:24.885Z,56.56
2019-06-07T22:30:57.712Z,57.08
2019-06-07T22:33:29.807Z,57.45
2019-06-07T22:36:02.069Z,58.23
2019-06-07T22:38:34.337Z,58.01
2019-06-07T22:41:07.290Z,58.36
2019-06-07T22:43:39.492Z,58.52
2019-06-07T22:46:12.989Z,58.82
2019-06-07T22:48:44.647Z,59.03
2019-06-07T22:51:18.433Z,59.01
2019-06-07T22:53:50.518Z,58.78
2019-06-07T22:56:30.228Z,58.66
2019-06-07T22:59:06.149Z,58.53
2019-06-07T23:01:38.404Z,59.13
2019-06-07T23:04:10.499Z,59.05
2019-06-07T23:06:43.636Z,59.41
2019-06-07T23:09:17.059Z,59.50
2019-06-07T23:11:49.441Z,59.57
2019-06-07T23:14:25.458Z,59.64
2019-06-07T23:16:56.441Z,60.28
2019-06-07T23:19:28.614Z,61.26
2019-06-07T23:22:01.058Z,61.06
2019-06-07T23:24:33.254Z,60.35
2019-06-07T23:27:05.339Z,60.24
2019-06-07T23:29:37.460Z,60.54
2019-06-07T23:32:10.501Z,59.89
2019-06-07T23:34:42.550Z,59.59
2019-06-07T23:37:15.020Z,59.39
2019-06-07T23:39:47.184Z,59.52
2019-06-07T23:42:19.770Z,59.84
2019-06-07T23:44:51.956Z,59.75
2019-06-07T23:47:24.338Z,59.95
2019-06-07T23:49:56.543Z,60.16
2019-06-07T23:52:28.667Z,60.37
2019-06-07T23:55:00.820Z,60.85
2019-06-07T23:57:33.150Z,60.93
